Архив погоды в Владивостоке

Метеограмма Владивосток
Среда, 25 Апреля
Время местн. Темп Ветер Видим Явления Облачность нижн/средн/верх Атм. давл. Влжн Точка росы ВНГО R Сост. почвы Tg s
Напр Скр Прв ур.ст ур.м изм
19:00 +7.2° В,Ю-В 7 - 20 км - ясно 741 758 -0.9 68% +1.8° более 2.5 км 0 - - -
16:00 +12.7° В 7 - 10 км мгла ясно 742 759 -1.2 31% -3.9° более 2.5 км - - - -
13:00 +13.2° В,Ю-В 5 - 10 км - ясно 743 760 -0.8 31% -3.4° более 2.5 км - - - -
10:00 +9.3° В 1 - 10 км мгла ясно 744 761 +0.5 43% -2.6° более 2.5 км - - - -
07:00 +5.8° С-З 2 - 10 км - ясно 743 761 +0.2 39% -6.9° более 2.5 км 0 Влажная (без луж) - -
04:00 +6.5° В 2 - 20 км - переменная облачность 743 761 -0.9 32% -8.9° более 2.5 км - - - -
01:00 +7.1° В,Ю-В 1 - 20 км - облачно с прояснениями 744 761 -0.5 28% -10° - - - - -
Вторник, 24 Апреля
Время местн. Темп Ветер Видим Явления Облачность нижн/средн/верх Атм. давл. Влжн Точка росы ВНГО R Сост. почвы Tg s
Напр Скр Прв ур.ст ур.м изм
22:00 +8.6° Ю-В 5 - 20 км - облачно с прояснениями 745 762 +0.5 25% -10.1° более 2.5 км - - - -
19:00 +8.8° Ю-В 7 10 20 км - облачно с прояснениями 744 761 -0.2 34% -6.1° более 2.5 км 0 - - -
16:00 +14.6° Ю-В 6 - 20 км - преимущественно облачно 744 761 -1.8 22% -7.1° более 2.5 км - - - -
13:00 +14.9° Ю 2 - 10 км - облачно с прояснениями 746 763 -1.2 21% -7.3° более 2.5 км - - - -
10:00 +9.7° С-З 2 - 10 км - переменная облачность 747 765 -0.2 33% -5.7° более 2.5 км - - - -
07:00 +6.2° С 3 - 20 км - облачно 748 765 -1.1 39% -6.6° более 2.5 км 0 Влажная (без луж) +1° -
04:00 +6.4° С 1 - более 50 км - облачно 749 766 -1.2 37% -7.2° более 2.5 км - - - -
01:00 +4.9° В,Ю-В 3 - 50 км - переменная облачность 750 767 -0.6 60% -2.3° более 2.5 км - - - -
Понедельник, 23 Апреля
Время местн. Темп Ветер Видим Явления Облачность нижн/средн/верх Атм. давл. Влжн Точка росы ВНГО R Сост. почвы Tg s
Напр Скр Прв ур.ст ур.м изм
22:00 +7.4° Ю-В 4 - более 50 км - облачно 750 768 +0.1 36% -6.8° более 2.5 км - - - -
19:00 +9.6° Ю 4 11 более 50 км - облачно 750 768 -0.8 25% -9.4° более 2.5 км 0 - - -
16:00 +12.9° С 7 10 более 50 км - облачно 751 768 -1.9 15% -12.8° более 2.5 км - - - -
13:00 +14.4° С,С-В 5 11 20 км - облачно 753 770 -0.6 16% -11° более 2.5 км - - - -
10:00 +10.3° С 1 - 20 км - облачно 754 771 +0.9 27% -7.8° более 2.5 км - - - -
07:00 +6.1° С-З 3 - более 50 км - облачно 753 770 +0.4 32% -9.3° более 2.5 км 0 Влажная (без луж) -
04:00 +7.7° С 6 - 50 км - ясно 752 770 -0.3 29% -9.2° более 2.5 км - - - -
01:00 +11.2° С,С-В 6 11 более 50 км - ясно 753 770 +0.4 18% -12.2° более 2.5 км - - - -
Воскресенье, 22 Апреля
Время местн. Темп Ветер Видим Явления Облачность нижн/средн/верх Атм. давл. Влжн Точка росы ВНГО R Сост. почвы Tg s
Напр Скр Прв ур.ст ур.м изм
22:00 +10.5° С 4 - 50 км - облачно 752 770 +1.4 22% -10.2° более 2.5 км - - - -
19:00 +13.6° С 7 15 более 50 км - облачно 751 768 -0.3 14% -13.6° более 2.5 км 0 - - -
16:00 +15° С,С-З 8 13 50 км - облачно 751 768 -0.8 17% -9.9° более 2.5 км - - - -